Time,TemperatureF,DewpointF,PressureIn,WindDirection,WindDirectionDegrees,WindSpeedMPH,WindSpeedGustMPH,Humidity,HourlyPrecipIn,Conditions,Clouds,dailyrainin,SoftwareType,DateUTC
2013-01-27 00:03:00,24.0,19.0,30.41,ESE,104,3.0,7.0,80,0.00,,,0.01,,2013-01-27 05:03:00,
2013-01-27 00:12:00,24.0,19.0,30.41,ESE,104,3.0,7.0,80,0.00,,,0.01,,2013-01-27 05:12:00,
2013-01-27 00:22:00,24.0,19.0,30.41,ESE,105,5.0,11.0,81,0.00,,,0.01,,2013-01-27 05:22:00,
2013-01-27 00:32:00,24.0,19.0,30.41,East,96,5.0,11.0,81,0.00,,,0.01,,2013-01-27 05:32:00,
2013-01-27 00:41:00,24.0,19.0,30.41,East,96,5.0,11.0,81,0.00,,,0.01,,2013-01-27 05:41:00,
2013-01-27 00:52:00,24.0,19.0,30.41,East,86,4.0,9.0,81,0.00,,,0.01,,2013-01-27 05:52:00,
2013-01-27 01:01:00,24.0,19.0,30.40,East,93,3.0,8.0,81,0.00,,,0.01,,2013-01-27 06:01:00,
2013-01-27 01:11:00,24.0,19.0,30.40,East,93,3.0,8.0,81,0.00,,,0.01,,2013-01-27 06:11:00,
2013-01-27 01:21:00,24.0,19.0,30.41,East,99,3.0,8.0,81,0.00,,,0.01,,2013-01-27 06:21:00,
2013-01-27 01:31:00,24.0,19.0,30.41,East,88,4.0,9.0,80,0.00,,,0.01,,2013-01-27 06:31:00,
2013-01-27 01:41:00,24.0,19.0,30.41,East,88,4.0,9.0,80,0.00,,,0.01,,2013-01-27 06:41:00,
2013-01-27 01:52:00,24.0,19.0,30.41,East,83,3.0,7.0,81,0.00,,,0.01,,2013-01-27 06:52:00,
2013-01-27 02:01:00,24.0,19.0,30.41,East,87,4.0,9.0,80,0.00,,,0.01,,2013-01-27 07:01:00,
2013-01-27 02:13:00,24.0,19.0,30.41,East,87,4.0,9.0,80,0.00,,,0.01,,2013-01-27 07:13:00,
2013-01-27 02:21:00,24.0,19.0,30.39,East,84,5.0,9.0,81,0.00,,,0.01,,2013-01-27 07:21:00,
2013-01-27 02:31:00,24.0,19.0,30.40,East,87,5.0,9.0,81,0.00,,,0.01,,2013-01-27 07:31:00,
2013-01-27 02:41:00,24.0,19.0,30.40,East,87,5.0,9.0,81,0.00,,,0.01,,2013-01-27 07:41:00,
2013-01-27 02:52:00,24.0,19.0,30.40,East,88,5.0,10.0,81,0.00,,,0.01,,2013-01-27 07:52:00,
2013-01-27 03:01:00,24.0,19.0,30.40,East,89,5.0,9.0,81,0.00,,,0.01,,2013-01-27 08:01:00,
2013-01-27 03:11:00,24.0,19.0,30.40,East,89,5.0,9.0,81,0.00,,,0.01,,2013-01-27 08:11:00,
2013-01-27 03:22:00,23.0,18.0,30.41,ESE,105,3.0,7.0,82,0.00,,,0.01,,2013-01-27 08:22:00,
2013-01-27 03:31:00,23.0,18.0,30.41,East,91,2.0,7.0,82,0.00,,,0.01,,2013-01-27 08:31:00,
2013-01-27 03:42:00,23.0,18.0,30.41,East,91,2.0,7.0,82,0.00,,,0.01,,2013-01-27 08:42:00,
2013-01-27 03:52:00,23.0,18.0,30.41,East,99,2.0,7.0,82,0.00,,,0.01,,2013-01-27 08:52:00,
2013-01-27 04:02:00,23.0,19.0,30.40,East,86,5.0,8.0,83,0.00,,,0.01,,2013-01-27 09:02:00,
2013-01-27 04:11:00,23.0,19.0,30.40,East,86,5.0,8.0,83,0.00,,,0.01,,2013-01-27 09:11:00,
2013-01-27 04:21:00,23.0,19.0,30.40,East,83,5.0,9.0,83,0.00,,,0.01,,2013-01-27 09:21:00,
2013-01-27 04:32:00,23.0,19.0,30.39,East,83,4.0,9.0,83,0.00,,,0.01,,2013-01-27 09:32:00,
2013-01-27 04:41:00,23.0,19.0,30.39,East,83,4.0,9.0,83,0.00,,,0.01,,2013-01-27 09:41:00,
2013-01-27 04:52:00,23.0,19.0,30.39,East,84,4.0,8.0,83,0.00,,,0.01,,2013-01-27 09:52:00,
2013-01-27 05:01:00,23.0,19.0,30.38,East,87,3.0,7.0,83,0.00,,,0.01,,2013-01-27 10:01:00,
2013-01-27 05:11:00,23.0,19.0,30.38,East,93,3.0,10.0,84,0.00,,,0.01,,2013-01-27 10:11:00,
2013-01-27 05:21:00,23.0,19.0,30.38,East,93,3.0,10.0,84,0.00,,,0.01,,2013-01-27 10:21:00,
2013-01-27 05:31:00,23.0,19.0,30.39,East,87,2.0,6.0,84,0.00,,,0.01,,2013-01-27 10:31:00,
2013-01-27 05:41:00,23.0,19.0,30.39,East,87,2.0,6.0,84,0.00,,,0.01,,2013-01-27 10:41:00,
2013-01-27 05:52:00,23.0,19.0,30.38,East,94,4.0,9.0,84,0.00,,,0.01,,2013-01-27 10:52:00,
2013-01-27 06:01:00,23.0,19.0,30.38,East,91,3.0,7.0,84,0.00,,,0.01,,2013-01-27 11:01:00,
2013-01-27 06:11:00,23.0,19.0,30.38,ESE,108,3.0,8.0,84,0.00,,,0.01,,2013-01-27 11:11:00,
2013-01-27 06:21:00,23.0,19.0,30.38,ESE,108,3.0,8.0,84,0.00,,,0.01,,2013-01-27 11:21:00,
2013-01-27 06:32:00,23.0,19.0,30.39,ESE,111,2.0,6.0,84,0.00,,,0.01,,2013-01-27 11:32:00,
2013-01-27 06:42:00,23.0,19.0,30.39,ESE,111,2.0,6.0,84,0.00,,,0.01,,2013-01-27 11:42:00,
2013-01-27 06:52:00,23.0,19.0,30.39,ESE,109,2.0,7.0,84,0.00,,,0.01,,2013-01-27 11:52:00,
2013-01-27 07:02:00,23.0,19.0,30.39,ESE,103,3.0,8.0,84,0.00,,,0.01,,2013-01-27 12:02:00,
2013-01-27 07:11:00,23.0,19.0,30.39,ESE,103,3.0,8.0,84,0.00,,,0.01,,2013-01-27 12:11:00,
2013-01-27 07:21:00,23.0,19.0,30.39,East,93,3.0,8.0,85,0.00,,,0.01,,2013-01-27 12:21:00,
2013-01-27 07:32:00,23.0,19.0,30.39,East,83,6.0,9.0,85,0.00,,,0.01,,2013-01-27 12:32:00,
2013-01-27 07:42:00,23.0,19.0,30.39,East,83,6.0,9.0,85,0.00,,,0.01,,2013-01-27 12:42:00,
2013-01-27 07:52:00,24.0,20.0,30.39,East,88,5.0,9.0,85,0.00,,,0.01,,2013-01-27 12:52:00,
2013-01-27 08:02:00,24.0,20.0,30.39,East,89,5.0,10.0,85,0.00,,,0.01,,2013-01-27 13:02:00,
2013-01-27 08:11:00,24.0,20.0,30.39,East,89,5.0,10.0,85,0.00,,,0.01,,2013-01-27 13:11:00,
2013-01-27 08:22:00,24.0,20.0,30.39,East,93,4.0,10.0,85,0.00,,,0.01,,2013-01-27 13:22:00,
2013-01-27 08:32:00,24.0,20.0,30.38,East,92,4.0,10.0,86,0.00,,,0.01,,2013-01-27 13:32:00,
2013-01-27 08:42:00,24.0,20.0,30.39,East,92,4.0,10.0,86,0.00,,,0.01,,2013-01-27 13:42:00,
2013-01-27 08:52:00,24.0,20.0,30.39,East,92,4.0,10.0,86,0.00,,,0.01,,2013-01-27 13:52:00,
2013-01-27 09:02:00,25.0,21.0,30.39,East,95,5.0,10.0,86,0.00,,,0.01,,2013-01-27 14:02:00,
2013-01-27 09:11:00,25.0,21.0,30.39,East,95,5.0,10.0,86,0.00,,,0.01,,2013-01-27 14:11:00,
2013-01-27 09:22:00,25.0,21.0,30.39,East,95,5.0,12.0,86,0.00,,,0.01,,2013-01-27 14:22:00,
2013-01-27 09:32:00,26.0,22.0,30.39,East,97,4.0,11.0,85,0.00,,,0.01,,2013-01-27 14:32:00,
2013-01-27 09:42:00,26.0,22.0,30.39,East,97,4.0,11.0,85,0.00,,,0.01,,2013-01-27 14:42:00,
2013-01-27 09:53:00,26.0,22.0,30.39,ESE,110,3.0,9.0,85,0.00,,,0.01,,2013-01-27 14:53:00,
2013-01-27 10:02:00,27.0,23.0,30.38,ESE,106,5.0,12.0,84,0.00,,,0.01,,2013-01-27 15:02:00,
2013-01-27 10:11:00,27.0,23.0,30.38,ESE,106,5.0,12.0,84,0.00,,,0.01,,2013-01-27 15:11:00,
2013-01-27 10:22:00,27.0,23.0,30.38,ESE,114,6.0,15.0,84,0.00,,,0.01,,2013-01-27 15:22:00,
2013-01-27 10:32:00,28.0,24.0,30.39,ESE,109,3.0,9.0,83,0.00,,,0.01,,2013-01-27 15:32:00,
2013-01-27 10:42:00,28.0,24.0,30.39,ESE,109,3.0,9.0,83,0.00,,,0.01,,2013-01-27 15:42:00,
2013-01-27 10:53:00,28.0,24.0,30.39,SE,136,3.0,10.0,83,0.00,,,0.01,,2013-01-27 15:53:00,
2013-01-27 11:02:00,29.0,24.0,30.39,ESE,116,5.0,10.0,82,0.00,,,0.01,,2013-01-27 16:02:00,
2013-01-27 11:11:00,29.0,24.0,30.39,ESE,116,5.0,10.0,82,0.00,,,0.01,,2013-01-27 16:11:00,
2013-01-27 11:21:00,30.0,25.0,30.38,ESE,109,4.0,10.0,82,0.00,,,0.01,,2013-01-27 16:21:00,
2013-01-27 11:32:00,30.0,25.0,30.38,ESE,112,4.0,10.0,80,0.00,,,0.01,,2013-01-27 16:32:00,
2013-01-27 11:42:00,30.0,25.0,30.38,ESE,112,4.0,10.0,80,0.00,,,0.01,,2013-01-27 16:42:00,
2013-01-27 11:53:00,31.0,25.0,30.38,ESE,105,5.0,14.0,79,0.00,,,0.01,,2013-01-27 16:53:00,
2013-01-27 12:01:00,32.0,26.0,30.37,East,95,5.0,11.0,77,0.00,,,0.01,,2013-01-27 17:01:00,
2013-01-27 12:12:00,32.0,26.0,30.37,East,95,5.0,11.0,77,0.00,,,0.01,,2013-01-27 17:12:00,
2013-01-27 12:22:00,33.0,26.0,30.37,ESE,110,4.0,11.0,75,0.00,,,0.01,,2013-01-27 17:22:00,
2013-01-27 12:32:00,33.0,25.0,30.36,SE,144,4.0,10.0,73,0.00,,,0.01,,2013-01-27 17:32:00,
2013-01-27 12:42:00,33.0,25.0,30.36,SE,144,4.0,10.0,73,0.00,,,0.01,,2013-01-27 17:42:00,
2013-01-27 12:52:00,34.0,26.0,30.35,ESE,113,3.0,8.0,72,0.00,,,0.01,,2013-01-27 17:52:00,
2013-01-27 13:02:00,34.0,26.0,30.34,ESE,105,3.0,9.0,72,0.00,,,0.01,,2013-01-27 18:02:00,
2013-01-27 13:11:00,34.0,26.0,30.34,ESE,105,3.0,9.0,72,0.00,,,0.01,,2013-01-27 18:11:00,
2013-01-27 13:22:00,35.0,26.0,30.33,SE,129,3.0,6.0,70,0.00,,,0.01,,2013-01-27 18:22:00,
2013-01-27 13:32:00,35.0,27.0,30.33,SE,133,2.0,8.0,72,0.00,,,0.01,,2013-01-27 18:32:00,
2013-01-27 13:42:00,35.0,27.0,30.33,SE,133,2.0,8.0,72,0.00,,,0.01,,2013-01-27 18:42:00,
2013-01-27 13:52:00,35.0,28.0,30.32,SE,139,2.0,7.0,74,0.00,,,0.01,,2013-01-27 18:52:00,
2013-01-27 14:02:00,35.0,27.0,30.31,SE,145,2.0,8.0,72,0.00,,,0.01,,2013-01-27 19:02:00,
2013-01-27 14:11:00,35.0,27.0,30.31,SE,145,2.0,8.0,72,0.00,,,0.01,,2013-01-27 19:11:00,
2013-01-27 14:22:00,35.0,27.0,30.30,SE,132,2.0,7.0,71,0.00,,,0.01,,2013-01-27 19:22:00,
2013-01-27 14:32:00,36.0,27.0,30.29,ESE,113,4.0,11.0,70,0.00,,,0.01,,2013-01-27 19:32:00,
2013-01-27 14:42:00,36.0,27.0,30.29,ESE,113,4.0,11.0,70,0.00,,,0.01,,2013-01-27 19:42:00,
2013-01-27 14:52:00,37.0,28.0,30.27,ESE,113,2.0,8.0,69,0.00,,,0.00,,2013-01-27 19:52:00,
2013-01-27 15:02:00,37.0,28.0,30.26,ESE,106,5.0,11.0,69,0.00,,,0.00,,2013-01-27 20:02:00,
2013-01-27 15:11:00,37.0,28.0,30.26,ESE,106,5.0,11.0,69,0.00,,,0.00,,2013-01-27 20:11:00,
2013-01-27 15:22:00,36.0,27.0,30.25,ESE,111,6.0,12.0,70,0.00,,,0.00,,2013-01-27 20:22:00,
2013-01-27 15:32:00,36.0,27.0,30.24,ESE,112,6.0,14.0,69,0.00,,,0.00,,2013-01-27 20:32:00,
2013-01-27 15:42:00,36.0,27.0,30.24,ESE,112,6.0,14.0,69,0.00,,,0.00,,2013-01-27 20:42:00,
2013-01-27 15:52:00,36.0,27.0,30.25,SE,127,4.0,9.0,69,0.00,,,0.00,,2013-01-27 20:52:00,
2013-01-27 16:02:00,37.0,28.0,30.24,ESE,110,4.0,11.0,69,0.00,,,0.00,,2013-01-27 21:02:00,
2013-01-27 16:12:00,37.0,28.0,30.24,ESE,110,4.0,11.0,69,0.00,,,0.00,,2013-01-27 21:12:00,
2013-01-27 16:22:00,37.0,27.0,30.23,SE,125,4.0,9.0,68,0.00,,,0.00,,2013-01-27 21:22:00,
2013-01-27 16:32:00,37.0,28.0,30.23,ESE,118,3.0,8.0,69,0.00,,,0.00,,2013-01-27 21:32:00,
2013-01-27 16:42:00,37.0,28.0,30.23,ESE,118,3.0,8.0,69,0.00,,,0.00,,2013-01-27 21:42:00,
2013-01-27 16:52:00,37.0,28.0,30.23,SE,126,3.0,9.0,70,0.00,,,0.00,,2013-01-27 21:52:00,
2013-01-27 17:02:00,37.0,29.0,30.22,SE,127,3.0,9.0,74,0.00,,,0.00,,2013-01-27 22:02:00,
2013-01-27 17:11:00,37.0,29.0,30.22,SE,127,3.0,9.0,74,0.00,,,0.00,,2013-01-27 22:11:00,
2013-01-27 17:22:00,36.0,30.0,30.22,SE,131,3.0,9.0,78,0.01,,,0.01,,2013-01-27 22:22:00,
2013-01-27 17:32:00,36.0,30.0,30.22,SE,131,5.0,11.0,80,0.01,,,0.01,,2013-01-27 22:32:00,
2013-01-27 17:42:00,36.0,30.0,30.22,SE,131,5.0,11.0,80,0.01,,,0.01,,2013-01-27 22:42:00,
2013-01-27 17:52:00,36.0,31.0,30.22,SE,144,5.0,10.0,81,0.01,,,0.01,,2013-01-27 22:52:00,
2013-01-27 18:02:00,35.0,31.0,30.21,SE,138,4.0,11.0,85,0.02,,,0.02,,2013-01-27 23:02:00,
2013-01-27 18:12:00,35.0,31.0,30.21,SE,138,4.0,11.0,85,0.02,,,0.02,,2013-01-27 23:12:00,
2013-01-27 18:21:00,35.0,32.0,30.20,SE,124,5.0,15.0,88,0.02,,,0.03,,2013-01-27 23:21:00,
2013-01-27 18:32:00,34.0,31.0,30.21,SE,125,4.0,9.0,90,0.03,,,0.04,,2013-01-27 23:32:00,
2013-01-27 18:41:00,34.0,31.0,30.21,SE,125,4.0,9.0,90,0.03,,,0.04,,2013-01-27 23:41:00,
2013-01-27 18:53:00,34.0,32.0,30.20,SE,133,3.0,8.0,92,0.04,,,0.05,,2013-01-27 23:53:00,
2013-01-27 19:01:00,34.0,32.0,30.20,ESE,123,4.0,10.0,92,0.04,,,0.06,,2013-01-28 00:01:00,
2013-01-27 19:11:00,34.0,32.0,30.20,ESE,123,4.0,10.0,92,0.04,,,0.06,,2013-01-28 00:11:00,
2013-01-27 19:21:00,34.0,32.0,30.21,SE,144,4.0,10.0,93,0.03,,,0.06,,2013-01-28 00:21:00,
2013-01-27 19:32:00,35.0,33.0,30.21,SE,145,4.0,9.0,94,0.03,,,0.07,,2013-01-28 00:32:00,
2013-01-27 19:42:00,35.0,33.0,30.21,SE,145,4.0,9.0,94,0.03,,,0.07,,2013-01-28 00:42:00,
2013-01-27 19:52:00,35.0,33.0,30.20,SE,135,3.0,9.0,94,0.03,,,0.08,,2013-01-28 00:52:00,
2013-01-27 20:01:00,35.0,33.0,30.19,SE,142,5.0,9.0,94,0.03,,,0.09,,2013-01-28 01:01:00,
2013-01-27 20:11:00,35.0,33.0,30.19,SE,142,5.0,9.0,94,0.03,,,0.09,,2013-01-28 01:11:00,
2013-01-27 20:22:00,35.0,34.0,30.19,SE,141,5.0,11.0,95,0.04,,,0.10,,2013-01-28 01:22:00,
2013-01-27 20:32:00,35.0,34.0,30.18,SE,138,4.0,10.0,95,0.04,,,0.11,,2013-01-28 01:32:00,
2013-01-27 20:42:00,35.0,34.0,30.18,SE,138,4.0,10.0,95,0.04,,,0.11,,2013-01-28 01:42:00,
2013-01-27 20:52:00,35.0,34.0,30.18,SSE,148,5.0,10.0,95,0.04,,,0.12,,2013-01-28 01:52:00,
2013-01-27 21:02:00,36.0,35.0,30.18,SE,143,4.0,9.0,96,0.04,,,0.13,,2013-01-28 02:02:00,
2013-01-27 21:11:00,36.0,35.0,30.18,SE,143,4.0,9.0,96,0.04,,,0.13,,2013-01-28 02:11:00,
2013-01-27 21:22:00,36.0,35.0,30.17,SE,141,4.0,9.0,96,0.03,,,0.13,,2013-01-28 02:22:00,
2013-01-27 21:32:00,36.0,35.0,30.17,SSE,148,4.0,11.0,96,0.03,,,0.14,,2013-01-28 02:32:00,
2013-01-27 21:42:00,36.0,35.0,30.17,SSE,148,4.0,11.0,96,0.03,,,0.14,,2013-01-28 02:42:00,
2013-01-27 21:52:00,37.0,36.0,30.16,SE,140,5.0,11.0,96,0.03,,,0.15,,2013-01-28 02:52:00,
2013-01-27 22:02:00,37.0,36.0,30.15,SE,141,5.0,11.0,96,0.04,,,0.17,,2013-01-28 03:02:00,
2013-01-27 22:11:00,37.0,36.0,30.15,SE,141,5.0,11.0,96,0.04,,,0.17,,2013-01-28 03:11:00,
2013-01-27 22:21:00,37.0,36.0,30.14,SE,144,5.0,9.0,96,0.05,,,0.18,,2013-01-28 03:21:00,
2013-01-27 22:32:00,38.0,37.0,30.14,SE,145,6.0,11.0,96,0.05,,,0.19,,2013-01-28 03:32:00,
2013-01-27 22:41:00,38.0,37.0,30.14,SE,145,6.0,11.0,96,0.05,,,0.19,,2013-01-28 03:41:00,
2013-01-27 22:53:00,38.0,37.0,30.12,SE,145,5.0,9.0,96,0.05,,,0.20,,2013-01-28 03:53:00,
2013-01-27 23:01:00,38.0,37.0,30.12,SSE,149,5.0,12.0,96,0.03,,,0.20,,2013-01-28 04:01:00,
2013-01-27 23:11:00,38.0,37.0,30.12,SSE,149,5.0,12.0,96,0.03,,,0.20,,2013-01-28 04:11:00,
2013-01-27 23:21:00,39.0,38.0,30.11,SSE,148,5.0,10.0,96,0.02,,,0.20,,2013-01-28 04:21:00,
2013-01-27 23:32:00,40.0,39.0,30.10,SE,143,4.0,11.0,96,0.01,,,0.20,,2013-01-28 04:32:00,
2013-01-27 23:41:00,40.0,39.0,30.10,SE,143,4.0,11.0,96,0.01,,,0.20,,2013-01-28 04:41:00,
2013-01-27 23:52:00,40.0,39.0,30.11,SSE,150,3.0,9.0,97,0.00,,,0.20,,2013-01-28 04:52:00,